createdAt,value
2022-08-30T00:00:18.773Z,80.47
2022-08-30T00:01:22.253Z,80.45
2022-08-30T00:02:26.113Z,80.58
2022-08-30T00:04:04.161Z,80.58
2022-08-30T00:05:08.014Z,80.72
2022-08-30T00:06:11.345Z,80.70
2022-08-30T00:07:46.876Z,80.71
2022-08-30T00:08:50.290Z,80.69
2022-08-30T00:09:53.766Z,80.70
2022-08-30T00:11:29.414Z,80.75
2022-08-30T00:12:32.863Z,81.05
2022-08-30T00:13:36.693Z,81.09
2022-08-30T00:15:12.402Z,81.05
2022-08-30T00:16:16.200Z,81.17
2022-08-30T00:17:19.891Z,81.18
2022-08-30T00:18:55.739Z,81.17
2022-08-30T00:19:59.328Z,81.09
2022-08-30T00:21:02.845Z,81.10
2022-08-30T00:22:38.568Z,81.12
2022-08-30T00:23:41.992Z,81.12
2022-08-30T00:24:45.474Z,81.38
2022-08-30T00:26:21.139Z,81.34
2022-08-30T00:27:25.255Z,81.21
2022-08-30T00:28:28.779Z,81.22
2022-08-30T00:30:04.478Z,81.08
2022-08-30T00:31:08.350Z,81.30
2022-08-30T00:32:13.884Z,81.30
2022-08-30T00:33:49.672Z,81.35
2022-08-30T00:34:53.164Z,81.46
2022-08-30T00:35:56.688Z,81.58
2022-08-30T00:37:32.395Z,81.74
2022-08-30T00:38:35.902Z,81.85
2022-08-30T00:39:39.458Z,81.92
2022-08-30T00:41:19.983Z,81.82
2022-08-30T00:42:23.520Z,81.82
2022-08-30T00:43:33.754Z,81.83
2022-08-30T00:45:15.100Z,81.91
2022-08-30T00:46:18.670Z,82.04
2022-08-30T00:47:22.774Z,82.11
2022-08-30T00:48:58.591Z,82.10
2022-08-30T00:50:02.065Z,82.08
2022-08-30T00:51:05.583Z,82.08
2022-08-30T00:52:41.337Z,82.20
2022-08-30T00:53:44.866Z,82.26
2022-08-30T00:54:48.394Z,82.74
2022-08-30T00:56:28.299Z,82.82
2022-08-30T00:57:31.810Z,82.65
2022-08-30T00:58:35.366Z,82.79
2022-08-30T01:00:18.308Z,82.68
2022-08-30T01:01:22.022Z,82.59
2022-08-30T01:02:30.505Z,82.58
2022-08-30T01:04:08.867Z,82.49
2022-08-30T01:05:12.445Z,82.53
2022-08-30T01:06:19.497Z,82.50
2022-08-30T01:08:02.459Z,82.47
2022-08-30T01:09:06.074Z,82.47
2022-08-30T01:10:09.791Z,82.54
2022-08-30T01:11:46.694Z,82.49
2022-08-30T01:12:50.243Z,82.65
2022-08-30T01:13:53.885Z,82.78
2022-08-30T01:15:33.274Z,82.87
2022-08-30T01:16:41.059Z,82.81
2022-08-30T01:17:46.637Z,82.86
2022-08-30T01:19:26.727Z,83.01
2022-08-30T01:20:30.208Z,83.00
2022-08-30T01:21:36.968Z,82.91
2022-08-30T01:23:12.478Z,83.02
2022-08-30T01:24:19.071Z,82.96
2022-08-30T01:25:22.614Z,83.06
2022-08-30T01:27:02.513Z,82.91
2022-08-30T01:28:06.151Z,82.97
2022-08-30T01:29:09.772Z,82.94
2022-08-30T01:30:45.610Z,83.07
2022-08-30T01:31:49.670Z,83.07
2022-08-30T01:32:53.182Z,83.07
2022-08-30T01:34:30.625Z,83.21
2022-08-30T01:35:34.623Z,83.26
2022-08-30T01:36:38.142Z,83.39
2022-08-30T01:38:20.872Z,83.33
2022-08-30T01:39:24.535Z,83.34
2022-08-30T01:40:28.377Z,83.39
2022-08-30T01:42:04.422Z,83.32
2022-08-30T01:43:08.832Z,83.33
2022-08-30T01:44:12.609Z,83.22
2022-08-30T01:45:48.710Z,83.19
2022-08-30T01:46:52.833Z,83.12
2022-08-30T01:47:56.288Z,83.18
2022-08-30T01:49:46.455Z,83.09
2022-08-30T01:50:50.243Z,83.04
2022-08-30T01:52:00.702Z,83.01
2022-08-30T01:53:37.249Z,83.02
2022-08-30T01:54:44.301Z,83.07
2022-08-30T01:55:47.842Z,83.20
2022-08-30T01:57:23.798Z,83.23
2022-08-30T01:58:27.319Z,83.27
2022-08-30T01:59:30.780Z,83.34
2022-08-30T02:00:18.229Z,83.45
2022-08-30T02:01:21.988Z,83.34
2022-08-30T02:02:26.214Z,83.44
2022-08-30T02:04:02.645Z,83.39
2022-08-30T02:05:06.464Z,83.33
2022-08-30T02:06:10.270Z,83.34
2022-08-30T02:07:46.051Z,83.60
2022-08-30T02:08:49.482Z,83.68
2022-08-30T02:09:53.100Z,83.54
2022-08-30T02:11:28.871Z,83.75
2022-08-30T02:12:32.392Z,83.84
2022-08-30T02:13:35.907Z,84.01
2022-08-30T02:15:13.422Z,84.02
2022-08-30T02:16:23.136Z,84.06
2022-08-30T02:17:27.009Z,84.12
2022-08-30T02:19:02.692Z,84.05
2022-08-30T02:20:07.043Z,84.14
2022-08-30T02:21:10.585Z,84.20
2022-08-30T02:22:57.582Z,84.26
2022-08-30T02:24:03.499Z,84.41
2022-08-30T02:25:07.027Z,84.48
2022-08-30T02:26:51.427Z,84.46
2022-08-30T02:27:55.027Z,84.50
2022-08-30T02:29:04.833Z,84.58
2022-08-30T02:30:40.731Z,84.56
2022-08-30T02:31:44.684Z,84.73
2022-08-30T02:32:48.208Z,84.80
2022-08-30T02:34:26.895Z,84.94
2022-08-30T02:35:31.112Z,85.01
2022-08-30T02:36:34.729Z,85.02
2022-08-30T02:38:10.419Z,85.22
2022-08-30T02:39:17.640Z,85.35
2022-08-30T02:40:21.374Z,85.53
2022-08-30T02:41:57.995Z,85.78
2022-08-30T02:43:03.212Z,85.78
2022-08-30T02:44:07.065Z,85.92
2022-08-30T02:45:43.118Z,86.03
2022-08-30T02:46:47.263Z,86.01
2022-08-30T02:47:52.974Z,86.05
2022-08-30T02:49:39.774Z,86.16
2022-08-30T02:50:43.351Z,86.19
2022-08-30T02:51:49.993Z,86.08
2022-08-30T02:53:31.949Z,85.99
2022-08-30T02:54:35.509Z,85.91
2022-08-30T02:55:40.447Z,85.85
2022-08-30T02:57:25.920Z,85.73
2022-08-30T02:58:29.421Z,85.70
2022-08-30T02:59:34.164Z,85.62
2022-08-30T03:00:17.899Z,85.62
2022-08-30T03:01:22.988Z,85.47
2022-08-30T03:02:29.411Z,85.41
2022-08-30T03:04:06.101Z,85.40
2022-08-30T03:05:13.498Z,85.35
2022-08-30T03:06:20.456Z,85.39
2022-08-30T03:07:56.247Z,85.45
2022-08-30T03:08:59.717Z,85.50
2022-08-30T03:10:03.192Z,85.55
2022-08-30T03:11:38.882Z,85.49
2022-08-30T03:12:42.501Z,85.49
2022-08-30T03:13:46.070Z,85.46
2022-08-30T03:15:21.818Z,85.45
2022-08-30T03:16:25.453Z,85.58
2022-08-30T03:17:29.580Z,85.72
2022-08-30T03:19:05.428Z,85.79
2022-08-30T03:20:09.111Z,85.86
2022-08-30T03:21:12.781Z,85.84
2022-08-30T03:22:48.565Z,85.73
2022-08-30T03:24:02.411Z,85.82
2022-08-30T03:25:05.990Z,85.82
2022-08-30T03:26:45.674Z,85.91
2022-08-30T03:27:50.001Z,85.91
2022-08-30T03:28:53.610Z,85.85
2022-08-30T03:30:30.764Z,85.90
2022-08-30T03:31:37.718Z,85.88
2022-08-30T03:32:52.210Z,85.87
2022-08-30T03:34:32.851Z,86.01
2022-08-30T03:35:39.040Z,86.29
2022-08-30T03:36:42.568Z,86.40
2022-08-30T03:38:19.720Z,86.37
2022-08-30T03:39:23.589Z,86.30
2022-08-30T03:40:29.660Z,86.27
2022-08-30T03:42:08.262Z,86.22
2022-08-30T03:43:18.450Z,86.13
2022-08-30T03:44:23.037Z,85.98
2022-08-30T03:45:59.098Z,85.99
2022-08-30T03:47:09.488Z,86.10
2022-08-30T03:48:13.065Z,86.10
2022-08-30T03:49:48.890Z,86.14
2022-08-30T03:50:52.402Z,86.16
2022-08-30T03:51:58.295Z,86.26
2022-08-30T03:53:34.812Z,86.32
2022-08-30T03:54:38.403Z,86.29
2022-08-30T03:55:41.988Z,86.27
2022-08-30T03:57:26.112Z,86.14
2022-08-30T03:58:38.794Z,86.07
2022-08-30T03:59:42.471Z,85.99
2022-08-30T04:00:18.638Z,85.99
2022-08-30T04:01:22.710Z,86.03
2022-08-30T04:02:26.990Z,85.96
2022-08-30T04:04:03.074Z,85.83
2022-08-30T04:05:47.305Z,85.79
2022-08-30T04:06:50.718Z,85.70
2022-08-30T04:07:54.199Z,85.81
2022-08-30T04:09:31.934Z,85.96
2022-08-30T04:10:35.350Z,85.95
2022-08-30T04:11:38.948Z,85.92
2022-08-30T04:13:15.428Z,86.04
2022-08-30T04:14:19.075Z,86.20
2022-08-30T04:15:22.612Z,86.17
2022-08-30T04:16:58.845Z,86.30
2022-08-30T04:18:02.437Z,86.23
2022-08-30T04:19:06.039Z,86.19
2022-08-30T04:20:41.698Z,86.14
2022-08-30T04:21:49.058Z,86.10
2022-08-30T04:22:52.761Z,86.05
2022-08-30T04:24:28.998Z,86.22
2022-08-30T04:25:32.509Z,86.23
2022-08-30T04:26:36.023Z,86.23
2022-08-30T04:28:11.750Z,86.12
2022-08-30T04:29:15.239Z,86.08
2022-08-30T04:30:19.006Z,85.99
2022-08-30T04:31:58.790Z,85.99
2022-08-30T04:33:04.746Z,85.90
2022-08-30T04:34:08.442Z,85.84
2022-08-30T04:35:44.115Z,85.99
2022-08-30T04:36:54.062Z,86.09
2022-08-30T04:38:02.426Z,86.03
2022-08-30T04:39:43.386Z,86.11
2022-08-30T04:40:47.543Z,86.03
2022-08-30T04:41:51.079Z,85.95
2022-08-30T04:43:26.936Z,86.21
2022-08-30T04:44:30.627Z,86.25
2022-08-30T04:45:34.349Z,86.24
2022-08-30T04:47:10.601Z,86.31
2022-08-30T04:48:14.112Z,86.37
2022-08-30T04:49:17.695Z,86.47
2022-08-30T04:50:53.703Z,86.41
2022-08-30T04:51:57.310Z,86.55
2022-08-30T04:53:00.931Z,86.61
2022-08-30T04:54:36.993Z,86.77
2022-08-30T04:55:40.630Z,86.77
2022-08-30T04:56:44.324Z,86.84
2022-08-30T04:58:20.106Z,86.89
2022-08-30T04:59:23.666Z,87.02
2022-08-30T05:00:18.269Z,87.18
2022-08-30T05:01:25.926Z,87.18
2022-08-30T05:02:42.757Z,87.22
2022-08-30T05:04:18.770Z,87.15
2022-08-30T05:05:22.410Z,87.17
2022-08-30T05:06:26.011Z,87.08
2022-08-30T05:08:01.789Z,87.14
2022-08-30T05:09:10.935Z,87.13
2022-08-30T05:10:17.341Z,87.08
2022-08-30T05:11:53.258Z,87.11
2022-08-30T05:12:56.890Z,87.13
2022-08-30T05:14:00.449Z,87.12
2022-08-30T05:15:37.939Z,87.11
2022-08-30T05:16:42.081Z,87.19
2022-08-30T05:17:45.751Z,87.44
2022-08-30T05:19:24.361Z,87.52
2022-08-30T05:20:27.876Z,87.58
2022-08-30T05:21:31.411Z,87.63
2022-08-30T05:23:07.082Z,87.70
2022-08-30T05:24:10.916Z,87.75
2022-08-30T05:25:14.770Z,87.78
2022-08-30T05:26:50.710Z,87.67
2022-08-30T05:27:54.273Z,87.60
2022-08-30T05:28:58.047Z,87.55
2022-08-30T05:30:33.713Z,87.47
2022-08-30T05:31:37.598Z,87.40
2022-08-30T05:32:41.553Z,87.69
2022-08-30T05:34:25.077Z,87.73
2022-08-30T05:35:32.069Z,87.77
2022-08-30T05:36:35.668Z,87.69
2022-08-30T05:38:12.671Z,87.61
2022-08-30T05:39:17.264Z,87.59
2022-08-30T05:40:44.085Z,87.59
2022-08-30T05:42:31.158Z,87.46
2022-08-30T05:43:35.842Z,87.40
2022-08-30T05:44:39.310Z,87.46
2022-08-30T05:46:20.472Z,87.52
2022-08-30T05:47:27.221Z,87.53
2022-08-30T05:48:30.671Z,87.51
2022-08-30T05:50:06.362Z,87.49
2022-08-30T05:51:09.903Z,87.46
2022-08-30T05:52:13.403Z,87.41
2022-08-30T05:53:49.085Z,87.35
2022-08-30T05:54:52.688Z,87.37
2022-08-30T05:55:56.199Z,87.34
2022-08-30T05:57:31.868Z,87.23
2022-08-30T05:58:37.780Z,87.14
2022-08-30T05:59:41.807Z,87.03
2022-08-30T06:00:17.965Z,86.96
2022-08-30T06:01:21.547Z,86.91
2022-08-30T06:02:25.488Z,86.90
2022-08-30T06:04:07.387Z,86.77
2022-08-30T06:05:14.171Z,86.69
2022-08-30T06:06:21.887Z,86.47
2022-08-30T06:08:03.702Z,86.43
2022-08-30T06:09:10.805Z,86.38
2022-08-30T06:10:15.212Z,86.28
2022-08-30T06:11:53.014Z,86.04
2022-08-30T06:12:56.540Z,85.98
2022-08-30T06:14:00.131Z,85.85
2022-08-30T06:15:39.898Z,85.68
2022-08-30T06:16:43.910Z,85.51
2022-08-30T06:17:47.401Z,85.31
2022-08-30T06:19:23.156Z,85.08
2022-08-30T06:20:26.667Z,85.04
2022-08-30T06:21:31.698Z,84.83
2022-08-30T06:23:07.425Z,84.74
2022-08-30T06:24:10.953Z,84.42
2022-08-30T06:25:47.928Z,84.29
2022-08-30T06:27:24.864Z,83.86
2022-08-30T06:28:28.453Z,83.77
2022-08-30T06:29:31.954Z,83.40
2022-08-30T06:31:11.197Z,83.35
2022-08-30T06:32:15.091Z,83.03
2022-08-30T06:33:18.693Z,82.93
2022-08-30T06:34:54.428Z,82.52
2022-08-30T06:36:05.948Z,82.40
2022-08-30T06:37:09.764Z,82.28
2022-08-30T06:39:00.305Z,82.01
2022-08-30T06:40:04.040Z,81.94
2022-08-30T06:41:07.875Z,81.77
2022-08-30T06:42:43.733Z,81.68
2022-08-30T06:43:53.975Z,81.21
2022-08-30T06:44:57.659Z,80.93
2022-08-30T06:46:41.664Z,80.57
2022-08-30T06:47:45.826Z,80.47
2022-08-30T06:48:56.200Z,80.10
2022-08-30T06:50:32.938Z,79.50
2022-08-30T06:51:36.852Z,79.32
2022-08-30T06:52:44.201Z,79.36
2022-08-30T06:54:23.894Z,79.04
2022-08-30T06:55:27.459Z,78.42
2022-08-30T06:56:31.342Z,78.51
2022-08-30T06:58:24.119Z,78.50
2022-08-30T06:59:27.708Z,78.19
2022-08-30T07:00:17.738Z,77.99
2022-08-30T07:01:23.206Z,77.98
2022-08-30T07:02:27.430Z,77.61
2022-08-30T07:04:03.894Z,77.44
2022-08-30T07:05:07.410Z,77.29
2022-08-30T07:06:16.627Z,77.04
2022-08-30T07:07:54.543Z,76.91
2022-08-30T07:09:02.321Z,76.60
2022-08-30T07:10:10.485Z,76.31
2022-08-30T07:11:47.151Z,75.79
2022-08-30T07:12:50.585Z,75.65
2022-08-30T07:13:54.214Z,75.74
2022-08-30T07:15:29.836Z,75.34
2022-08-30T07:16:37.716Z,75.12
2022-08-30T07:17:44.038Z,74.92
2022-08-30T07:19:27.119Z,74.56
2022-08-30T07:20:40.538Z,74.31
2022-08-30T07:21:44.435Z,74.18
2022-08-30T07:23:20.032Z,73.84
2022-08-30T07:24:23.626Z,73.67
2022-08-30T07:25:27.099Z,73.48
2022-08-30T07:27:02.814Z,72.84
2022-08-30T07:28:06.281Z,72.53
2022-08-30T07:29:09.788Z,72.59
2022-08-30T07:30:47.004Z,72.48
2022-08-30T07:31:50.896Z,72.28
2022-08-30T07:32:54.453Z,72.07
2022-08-30T07:34:33.310Z,71.44
2022-08-30T07:35:38.222Z,70.86
2022-08-30T07:36:43.031Z,70.86
2022-08-30T07:38:18.752Z,70.60
2022-08-30T07:39:23.765Z,69.73
2022-08-30T07:40:39.612Z,70.29
2022-08-30T07:42:17.071Z,69.83
2022-08-30T07:43:20.624Z,70.00
2022-08-30T07:44:25.005Z,69.72
2022-08-30T07:46:00.953Z,69.00
2022-08-30T07:47:04.877Z,68.09
2022-08-30T07:48:08.468Z,68.25
2022-08-30T07:49:45.323Z,68.73
2022-08-30T07:50:51.624Z,68.47
2022-08-30T07:52:03.102Z,67.98
2022-08-30T07:53:46.352Z,67.94
2022-08-30T07:54:52.875Z,67.54
2022-08-30T07:55:56.679Z,67.01
2022-08-30T07:57:35.043Z,66.16
2022-08-30T07:58:38.860Z,65.72
2022-08-30T07:59:42.365Z,64.89
2022-08-30T08:00:18.389Z,64.99
2022-08-30T08:01:23.283Z,64.89
2022-08-30T08:02:27.389Z,64.08
2022-08-30T08:04:03.466Z,63.06
2022-08-30T08:05:13.955Z,63.18
2022-08-30T08:06:22.822Z,63.10
2022-08-30T08:08:05.167Z,62.89
2022-08-30T08:09:08.849Z,62.42
2022-08-30T08:10:12.216Z,62.56
2022-08-30T08:11:48.479Z,61.54
2022-08-30T08:12:52.143Z,61.36
2022-08-30T08:14:00.314Z,61.79
2022-08-30T08:15:36.083Z,62.06
2022-08-30T08:16:39.991Z,62.02
2022-08-30T08:17:43.318Z,62.10
2022-08-30T08:19:18.955Z,61.94
2022-08-30T08:20:22.476Z,61.55
2022-08-30T08:21:25.655Z,60.99
2022-08-30T08:23:19.982Z,59.93
2022-08-30T08:24:23.510Z,60.24
2022-08-30T08:25:27.031Z,60.12
2022-08-30T08:27:02.444Z,59.97
2022-08-30T08:28:05.757Z,59.83
2022-08-30T08:29:09.283Z,59.06
2022-08-30T08:30:48.164Z,58.77
2022-08-30T08:31:52.096Z,59.25
2022-08-30T08:32:55.379Z,59.05
2022-08-30T08:34:30.708Z,58.83
2022-08-30T08:35:34.137Z,58.79
2022-08-30T08:36:37.574Z,58.90
2022-08-30T08:38:19.001Z,59.25
2022-08-30T08:39:24.051Z,58.88
2022-08-30T08:40:28.156Z,58.39
2022-08-30T08:42:04.065Z,58.27
2022-08-30T08:43:07.409Z,58.81
2022-08-30T08:44:10.674Z,58.39
2022-08-30T08:45:58.464Z,58.97
2022-08-30T08:47:03.066Z,58.33
2022-08-30T08:48:10.058Z,58.39
2022-08-30T08:50:23.166Z,58.55
2022-08-30T08:51:27.085Z,57.72
2022-08-30T08:52:32.499Z,56.86
2022-08-30T08:54:33.184Z,55.80
2022-08-30T08:55:39.661Z,55.92
2022-08-30T08:56:42.977Z,55.13
2022-08-30T08:58:18.842Z,54.77
2022-08-30T08:59:22.399Z,54.31
2022-08-30T09:00:18.129Z,54.38
2022-08-30T09:01:21.891Z,53.04
2022-08-30T09:02:25.919Z,54.03
2022-08-30T09:04:08.686Z,53.29
2022-08-30T09:05:13.042Z,53.41
2022-08-30T09:06:16.833Z,53.84
2022-08-30T09:07:59.194Z,54.01
2022-08-30T09:09:15.208Z,54.06
2022-08-30T09:10:29.908Z,53.51
2022-08-30T09:12:22.399Z,53.66
2022-08-30T09:13:28.797Z,53.70
2022-08-30T09:14:36.188Z,53.68
2022-08-30T09:16:28.388Z,53.76
2022-08-30T09:17:34.914Z,54.19
2022-08-30T09:18:42.639Z,54.17
2022-08-30T09:20:27.024Z,54.83
2022-08-30T09:21:30.571Z,54.94
2022-08-30T09:22:39.361Z,54.44
2022-08-30T09:24:26.086Z,53.60
2022-08-30T09:25:30.482Z,52.26
2022-08-30T09:26:42.127Z,52.03
2022-08-30T09:28:19.285Z,51.55
2022-08-30T09:29:22.676Z,51.51
2022-08-30T09:30:27.087Z,50.49
2022-08-30T09:32:31.204Z,50.98
2022-08-30T09:33:35.032Z,50.72
2022-08-30T09:34:41.827Z,50.09
2022-08-30T09:36:19.373Z,49.60
2022-08-30T09:37:22.881Z,50.18
2022-08-30T09:38:26.454Z,49.85
2022-08-30T09:40:08.143Z,48.43
2022-08-30T09:41:12.812Z,48.32
2022-08-30T09:42:17.150Z,49.17
2022-08-30T09:43:53.441Z,49.08
2022-08-30T09:44:57.469Z,49.26
2022-08-30T09:46:03.043Z,49.18
2022-08-30T09:47:42.617Z,49.29
2022-08-30T09:48:47.009Z,48.85
2022-08-30T09:49:53.586Z,48.75
2022-08-30T09:51:40.409Z,47.60
2022-08-30T09:52:46.728Z,47.83
2022-08-30T09:54:22.644Z,47.96
2022-08-30T09:56:02.704Z,48.79
2022-08-30T09:57:12.765Z,48.92
2022-08-30T09:58:29.957Z,48.99
2022-08-30T10:00:19.357Z,47.46
2022-08-30T10:01:23.316Z,47.34
2022-08-30T10:02:29.000Z,46.68
2022-08-30T10:04:23.221Z,46.72
2022-08-30T10:05:31.048Z,47.16
2022-08-30T10:06:37.208Z,46.98
2022-08-30T10:08:18.689Z,47.07
2022-08-30T10:09:24.656Z,45.50
2022-08-30T10:10:28.151Z,46.34
2022-08-30T10:12:10.347Z,46.19
2022-08-30T10:13:14.586Z,45.95
2022-08-30T10:14:20.232Z,46.94
2022-08-30T10:15:57.276Z,46.35
2022-08-30T10:17:00.869Z,46.63
2022-08-30T10:18:14.427Z,46.02
2022-08-30T10:19:53.509Z,45.41
2022-08-30T10:20:57.130Z,45.91
2022-08-30T10:22:05.627Z,46.04
2022-08-30T10:23:46.506Z,45.98
2022-08-30T10:24:51.178Z,45.15
2022-08-30T10:25:56.977Z,45.02
2022-08-30T10:27:40.206Z,46.33
2022-08-30T10:28:44.130Z,45.91
2022-08-30T10:29:50.414Z,45.38
2022-08-30T10:31:29.503Z,45.33
2022-08-30T10:32:33.300Z,44.58
2022-08-30T10:33:37.698Z,43.65
2022-08-30T10:35:18.787Z,43.83
2022-08-30T10:36:31.156Z,43.45
2022-08-30T10:37:34.722Z,43.53
2022-08-30T10:39:10.561Z,43.07
2022-08-30T10:40:23.339Z,43.26
2022-08-30T10:41:31.633Z,42.97
2022-08-30T10:43:11.067Z,42.27
2022-08-30T10:44:16.055Z,42.09
2022-08-30T10:45:21.964Z,43.10
2022-08-30T10:46:57.792Z,43.37
2022-08-30T10:48:10.138Z,42.64
2022-08-30T10:49:19.645Z,43.71
2022-08-30T10:50:59.381Z,44.17
2022-08-30T10:52:04.856Z,41.46
2022-08-30T10:53:08.668Z,41.52
2022-08-30T10:54:45.445Z,42.68
2022-08-30T10:55:55.727Z,42.60
2022-08-30T10:56:59.698Z,43.21
2022-08-30T10:58:36.192Z,43.04
2022-08-30T10:59:40.008Z,42.61
2022-08-30T11:00:19.681Z,42.61
2022-08-30T11:01:28.271Z,42.00
2022-08-30T11:43:32.053Z,38.29
2022-08-30T11:45:11.165Z,38.90
2022-08-30T11:46:20.701Z,39.57
2022-08-30T11:47:26.090Z,39.04
2022-08-30T11:49:03.074Z,39.95
2022-08-30T11:50:16.641Z,39.92
2022-08-30T11:51:29.605Z,39.31
2022-08-30T11:53:43.857Z,39.58
2022-08-30T11:54:58.674Z,39.60
2022-08-30T11:56:05.406Z,40.17
2022-08-30T11:57:46.706Z,40.29
2022-08-30T11:58:58.195Z,40.24
2022-08-30T12:00:18.125Z,39.65
2022-08-30T12:01:57.288Z,41.09
2022-08-30T12:03:05.685Z,38.57
2022-08-30T12:04:43.406Z,38.39
2022-08-30T12:05:48.180Z,39.33
2022-08-30T12:06:52.655Z,38.91
2022-08-30T12:08:33.608Z,37.70
2022-08-30T12:09:50.119Z,39.59
2022-08-30T12:10:56.247Z,38.89
2022-08-30T12:12:32.131Z,38.49
2022-08-30T12:13:39.267Z,37.65
2022-08-30T12:14:46.817Z,38.04
2022-08-30T12:16:24.993Z,37.53
2022-08-30T12:17:32.905Z,37.09
2022-08-30T12:18:38.834Z,36.67
2022-08-30T12:20:22.519Z,37.22
2022-08-30T12:21:28.174Z,37.01
2022-08-30T12:22:43.697Z,36.94
2022-08-30T12:24:26.057Z,36.97
2022-08-30T12:25:30.850Z,38.33
2022-08-30T12:26:35.330Z,37.89
2022-08-30T12:28:19.646Z,36.80
2022-08-30T12:29:30.218Z,36.61
2022-08-30T12:30:33.640Z,37.51
2022-08-30T12:32:11.914Z,37.43
2022-08-30T12:33:15.655Z,37.36
2022-08-30T12:34:30.398Z,36.78
2022-08-30T12:36:05.924Z,36.54
2022-08-30T12:37:12.071Z,36.59
2022-08-30T12:38:17.775Z,36.70
2022-08-30T12:39:59.668Z,36.50
2022-08-30T12:41:05.664Z,36.53
2022-08-30T12:42:10.521Z,36.59
2022-08-30T12:43:55.495Z,36.29
2022-08-30T12:44:59.445Z,35.93
2022-08-30T12:46:15.387Z,36.30
2022-08-30T12:47:53.170Z,35.57
2022-08-30T12:48:57.088Z,35.54
2022-08-30T12:50:02.603Z,36.51
2022-08-30T12:51:46.678Z,35.76
2022-08-30T12:52:51.230Z,35.19
2022-08-30T12:54:00.411Z,36.54
2022-08-30T12:55:37.478Z,34.09
2022-08-30T12:56:55.968Z,34.98
2022-08-30T12:58:42.858Z,34.91
2022-08-30T13:00:17.829Z,36.00
2022-08-30T13:01:24.361Z,34.67
2022-08-30T13:02:37.025Z,35.46
2022-08-30T13:04:17.858Z,35.93
2022-08-30T13:05:21.663Z,35.78
2022-08-30T13:06:33.997Z,34.59
2022-08-30T13:08:13.477Z,34.88
2022-08-30T13:09:17.962Z,34.60
2022-08-30T13:10:25.457Z,35.23
2022-08-30T13:12:01.275Z,34.43
2022-08-30T13:13:07.555Z,33.94
2022-08-30T13:14:16.095Z,34.57
2022-08-30T13:15:55.673Z,34.50
2022-08-30T13:17:00.402Z,33.76
2022-08-30T13:18:05.118Z,33.72
2022-08-30T13:19:46.425Z,34.66
2022-08-30T13:20:50.246Z,33.95
2022-08-30T13:21:54.292Z,34.39
2022-08-30T13:23:33.858Z,34.12
2022-08-30T13:24:39.742Z,34.03
2022-08-30T13:25:44.763Z,33.94
2022-08-30T13:27:21.628Z,33.77
2022-08-30T13:28:29.237Z,33.58
2022-08-30T13:29:36.354Z,34.73
2022-08-30T13:31:15.940Z,33.83
2022-08-30T13:32:24.593Z,34.24
2022-08-30T13:33:31.127Z,33.65
2022-08-30T13:35:06.519Z,34.17
2022-08-30T13:36:10.532Z,34.20
2022-08-30T13:37:57.040Z,34.22
2022-08-30T13:39:35.931Z,34.24
2022-08-30T13:40:50.113Z,34.07
2022-08-30T13:42:31.727Z,34.68
2022-08-30T13:44:18.401Z,33.94
2022-08-30T13:45:48.481Z,33.87
2022-08-30T13:50:45.271Z,34.05
2022-08-30T13:52:20.869Z,33.96
2022-08-30T13:54:33.454Z,32.79
2022-08-30T13:55:37.607Z,32.99
2022-08-30T13:56:41.505Z,32.86
2022-08-30T13:58:47.884Z,33.28
2022-08-30T13:59:56.759Z,33.52
2022-08-30T14:00:20.359Z,33.52
2022-08-30T14:02:07.540Z,33.56
2022-08-30T14:03:20.849Z,33.04
2022-08-30T14:06:15.792Z,33.77
2022-08-30T14:08:07.845Z,33.21
2022-08-30T14:10:46.752Z,33.29
2022-08-30T14:13:08.007Z,32.30
2022-08-30T14:14:43.016Z,32.39
2022-08-30T14:18:02.412Z,33.16
2022-08-30T14:19:11.422Z,32.90
2022-08-30T14:20:23.584Z,33.31
2022-08-30T14:22:08.477Z,32.16
2022-08-30T14:23:16.034Z,32.51
2022-08-30T14:24:26.667Z,32.44
2022-08-30T14:26:03.524Z,32.26
2022-08-30T14:27:13.638Z,32.16
2022-08-30T14:28:22.891Z,32.45
2022-08-30T14:30:05.544Z,31.71
2022-08-30T14:31:15.002Z,32.23
2022-08-30T14:32:19.952Z,32.26
2022-08-30T14:33:56.260Z,33.00
2022-08-30T14:35:03.095Z,33.00
2022-08-30T14:36:15.428Z,32.65
2022-08-30T14:37:53.594Z,33.50
2022-08-30T14:38:58.533Z,32.12
2022-08-30T14:40:08.903Z,32.53
2022-08-30T14:41:49.629Z,32.66
2022-08-30T14:43:05.574Z,33.18
2022-08-30T14:44:10.619Z,33.07
2022-08-30T14:46:10.051Z,33.31
2022-08-30T14:47:16.313Z,32.97
2022-08-30T14:48:28.189Z,33.95
2022-08-30T14:50:09.659Z,33.17
2022-08-30T14:51:17.191Z,33.93
2022-08-30T14:52:21.076Z,33.14
2022-08-30T14:53:58.277Z,33.63
2022-08-30T14:55:08.579Z,33.46
2022-08-30T14:56:12.105Z,34.10
2022-08-30T14:57:50.055Z,34.29
2022-08-30T14:58:56.601Z,34.80
2022-08-30T15:00:01.775Z,35.42
2022-08-30T15:00:18.261Z,35.42
2022-08-30T15:01:24.157Z,35.23
2022-08-30T15:02:32.891Z,34.66
2022-08-30T15:04:12.106Z,34.67
2022-08-30T15:05:20.294Z,35.72
2022-08-30T15:06:24.077Z,35.76
2022-08-30T15:08:06.688Z,35.53
2022-08-30T15:09:11.886Z,35.51
2022-08-30T15:10:16.746Z,35.58
2022-08-30T15:11:55.312Z,35.85
2022-08-30T15:13:05.002Z,36.41
2022-08-30T15:14:11.838Z,36.65
2022-08-30T15:15:53.651Z,36.19
2022-08-30T15:16:57.350Z,36.75
2022-08-30T15:18:01.491Z,36.79
2022-08-30T15:19:38.829Z,37.29
2022-08-30T15:20:42.318Z,36.64
2022-08-30T15:21:47.400Z,36.66
2022-08-30T15:23:32.980Z,36.97
2022-08-30T15:24:38.820Z,37.05
2022-08-30T15:25:50.088Z,37.01
2022-08-30T15:27:26.634Z,37.17
2022-08-30T15:28:32.410Z,37.19
2022-08-30T15:29:37.952Z,37.39
2022-08-30T15:31:15.479Z,36.79
2022-08-30T15:32:21.462Z,38.00
2022-08-30T15:33:24.978Z,37.19
2022-08-30T15:35:09.030Z,37.42
2022-08-30T15:36:15.042Z,37.40
2022-08-30T15:37:18.850Z,38.07
2022-08-30T15:39:02.567Z,37.89
2022-08-30T15:40:10.682Z,38.10
2022-08-30T15:41:15.150Z,38.15
2022-08-30T15:42:59.999Z,38.12
2022-08-30T15:44:04.003Z,37.94
2022-08-30T15:45:12.082Z,37.40
2022-08-30T15:46:48.752Z,37.26
2022-08-30T15:47:54.600Z,38.24
2022-08-30T15:48:58.503Z,37.72
2022-08-30T15:50:34.204Z,38.28
2022-08-30T15:51:47.704Z,37.93
2022-08-30T15:52:54.679Z,38.29
2022-08-30T15:54:32.754Z,38.01
2022-08-30T15:55:41.441Z,38.41
2022-08-30T15:56:48.501Z,38.04
2022-08-30T15:58:24.448Z,38.37
2022-08-30T15:59:29.227Z,37.96
2022-08-30T16:00:18.064Z,38.22
2022-08-30T16:01:36.269Z,38.65
2022-08-30T16:02:44.789Z,38.37
2022-08-30T16:04:24.471Z,38.13
2022-08-30T16:05:47.424Z,38.27
2022-08-30T16:06:53.673Z,38.36
2022-08-30T16:07:59.021Z,38.32
2022-08-30T16:09:39.006Z,38.07
2022-08-30T16:10:48.871Z,38.29
2022-08-30T16:11:55.364Z,38.31
2022-08-30T16:13:37.189Z,38.65
2022-08-30T16:14:47.225Z,38.76
2022-08-30T16:15:50.656Z,38.83
2022-08-30T16:17:27.726Z,39.13
2022-08-30T16:18:31.949Z,39.27
2022-08-30T16:19:40.799Z,39.09
2022-08-30T16:21:25.422Z,39.03
2022-08-30T16:22:29.091Z,39.55
2022-08-30T16:23:39.263Z,39.74
2022-08-30T16:25:19.843Z,39.58
2022-08-30T16:26:45.088Z,39.80
2022-08-30T16:27:49.713Z,39.80
2022-08-30T16:29:31.333Z,40.16
2022-08-30T16:30:37.179Z,40.45
2022-08-30T16:31:42.731Z,40.34
2022-08-30T16:33:19.708Z,40.64
2022-08-30T16:34:33.665Z,40.77
2022-08-30T16:35:36.948Z,40.81
2022-08-30T16:37:14.672Z,40.99
2022-08-30T16:38:21.125Z,41.28
2022-08-30T16:39:37.939Z,40.89
2022-08-30T16:41:23.470Z,40.98
2022-08-30T16:42:31.191Z,41.13
2022-08-30T16:43:36.512Z,41.18
2022-08-30T16:45:24.938Z,40.93
2022-08-30T16:46:33.704Z,41.05
2022-08-30T16:47:45.487Z,40.87
2022-08-30T16:49:28.411Z,40.95
2022-08-30T16:50:31.609Z,40.68
2022-08-30T16:51:35.973Z,40.86
2022-08-30T16:53:13.700Z,40.94
2022-08-30T16:54:19.870Z,40.93
2022-08-30T16:55:24.744Z,41.05
2022-08-30T16:57:00.185Z,41.32
2022-08-30T16:58:05.751Z,41.14
2022-08-30T17:00:19.402Z,41.35
2022-08-30T17:01:29.683Z,41.57
2022-08-30T17:02:37.294Z,41.60
2022-08-30T17:04:32.110Z,42.39
2022-08-30T17:05:39.494Z,42.65
2022-08-30T17:06:51.204Z,42.73
2022-08-30T17:08:39.576Z,42.82
2022-08-30T17:09:48.727Z,42.94
2022-08-30T17:10:58.078Z,43.14
2022-08-30T17:12:34.783Z,43.57
2022-08-30T17:13:39.101Z,43.33
2022-08-30T17:14:44.614Z,43.86
2022-08-30T17:16:34.026Z,43.72
2022-08-30T17:17:43.184Z,43.85
2022-08-30T17:18:47.908Z,43.95
2022-08-30T17:20:33.451Z,43.91
2022-08-30T17:21:38.928Z,44.15